Terminal Aerodrome Forecast
Issued by NWS

Home | Current Version | Previous Version | Text Only | Print | Product List | Glossary On
Versions: 1 2 3 4 5 6 7 8 9 10 11 12 13 14 15 16 17 18 19 20 21 22
000
FTUS43 KDLH 312333
TAFHIB
TAF
KHIB 312333Z 0100/0124 20011G17KT P6SM SCT100
     FM010100 20007KT P6SM BKN100
     FM010600 VRB03KT 5SM BR BKN040
     FM011200 00000KT 2SM BR SCT012 BKN100
     FM011600 23008KT P6SM FEW050=

USA.gov is the U.S. government's official web portal to all federal, state and local government web resources and services.